createdAt,value
2023-03-27T00:02:23.682Z,8.07
2023-03-27T00:04:50.920Z,7.45
2023-03-27T00:07:20.078Z,7.75
2023-03-27T00:09:47.337Z,7.38
2023-03-27T00:12:14.552Z,7.28
2023-03-27T00:14:41.983Z,6.70
2023-03-27T00:17:09.496Z,7.90
2023-03-27T00:19:36.668Z,7.22
2023-03-27T00:22:03.924Z,7.78
2023-03-27T00:24:31.411Z,7.90
2023-03-27T00:26:58.729Z,6.47
2023-03-27T00:29:25.918Z,6.95
2023-03-27T00:31:53.005Z,6.95
2023-03-27T00:34:20.385Z,7.35
2023-03-27T00:36:51.175Z,7.75
2023-03-27T00:39:19.296Z,7.93
2023-03-27T00:41:47.368Z,6.00
2023-03-27T00:44:27.027Z,7.32
2023-03-27T00:46:57.183Z,7.20
2023-03-27T00:49:28.887Z,7.80
2023-03-27T00:51:59.053Z,7.78
2023-03-27T00:54:30.221Z,7.55
2023-03-27T00:57:01.521Z,7.88
2023-03-27T00:59:32.189Z,8.32
2023-03-27T01:02:02.326Z,7.90
2023-03-27T01:04:31.546Z,7.97
2023-03-27T01:07:00.279Z,8.00
2023-03-27T01:09:27.976Z,8.77
2023-03-27T01:12:14.709Z,8.90
2023-03-27T01:14:49.613Z,8.32
2023-03-27T01:17:33.733Z,8.65
2023-03-27T01:20:34.561Z,8.55
2023-03-27T01:23:17.221Z,8.85
2023-03-27T01:26:16.273Z,7.60
2023-03-27T01:29:33.504Z,8.50
2023-03-27T01:32:19.749Z,8.20
2023-03-27T01:34:46.984Z,7.75
2023-03-27T01:37:22.576Z,7.95
2023-03-27T01:40:20.002Z,7.70
2023-03-27T01:42:56.945Z,7.45
2023-03-27T01:45:48.963Z,7.53
2023-03-27T01:48:24.854Z,7.03
2023-03-27T01:50:57.696Z,7.80
2023-03-27T01:53:28.581Z,7.60
2023-03-27T01:56:32.809Z,6.90
2023-03-27T01:59:07.142Z,6.90
2023-03-27T02:01:45.862Z,7.22
2023-03-27T02:04:18.528Z,7.28
2023-03-27T02:06:52.219Z,7.57
2023-03-27T02:09:26.643Z,7.90
2023-03-27T02:12:04.249Z,8.10
2023-03-27T02:14:38.917Z,7.78
2023-03-27T02:17:13.006Z,8.10
2023-03-27T02:19:47.617Z,7.88
2023-03-27T02:22:16.252Z,8.93
2023-03-27T02:24:47.029Z,9.35
2023-03-27T02:27:32.592Z,10.32
2023-03-27T02:30:10.414Z,10.30
2023-03-27T02:32:53.990Z,10.35
2023-03-27T02:35:53.088Z,10.52
2023-03-27T02:38:45.143Z,10.20
2023-03-27T02:41:40.398Z,11.52
2023-03-27T02:44:46.673Z,10.93
2023-03-27T02:47:25.049Z,10.98
2023-03-27T02:50:04.418Z,12.13
2023-03-27T02:52:46.891Z,12.23
2023-03-27T02:55:24.596Z,12.40
2023-03-27T02:58:00.389Z,13.57
2023-03-27T03:00:41.337Z,13.32
2023-03-27T03:03:37.601Z,14.63
2023-03-27T03:06:20.372Z,14.95
2023-03-27T03:08:48.664Z,15.55
2023-03-27T03:11:15.960Z,15.18
2023-03-27T03:13:43.144Z,16.25
2023-03-27T03:16:10.571Z,16.33
2023-03-27T03:18:38.002Z,17.02
2023-03-27T03:21:05.855Z,16.73
2023-03-27T03:23:34.134Z,15.93
2023-03-27T03:26:03.500Z,16.60
2023-03-27T03:29:00.196Z,16.38
2023-03-27T03:31:43.498Z,17.02
2023-03-27T03:34:13.484Z,16.15
2023-03-27T03:36:42.209Z,16.20
2023-03-27T03:39:10.090Z,16.40
2023-03-27T03:41:37.340Z,16.02
2023-03-27T03:44:04.840Z,16.40
2023-03-27T03:46:32.586Z,15.80
2023-03-27T03:49:01.264Z,16.85
2023-03-27T03:51:28.978Z,15.07
2023-03-27T03:53:56.355Z,15.85
2023-03-27T03:56:24.634Z,15.88
2023-03-27T03:58:52.862Z,15.73
2023-03-27T04:01:20.817Z,16.88
2023-03-27T04:03:52.450Z,16.15
2023-03-27T04:06:25.746Z,17.48
2023-03-27T04:08:58.492Z,17.30
2023-03-27T04:11:47.141Z,17.45
2023-03-27T04:14:32.648Z,16.33
2023-03-27T04:17:04.656Z,17.17
2023-03-27T04:19:32.032Z,16.20
2023-03-27T04:22:05.146Z,16.48
2023-03-27T04:24:35.808Z,17.33
2023-03-27T04:27:03.096Z,15.63
2023-03-27T04:29:47.563Z,15.45
2023-03-27T04:32:33.267Z,15.23
2023-03-27T04:35:20.246Z,14.55
2023-03-27T04:38:04.723Z,13.38
2023-03-27T04:40:46.097Z,16.38
2023-03-27T04:43:14.030Z,16.58
2023-03-27T04:45:41.425Z,17.13
2023-03-27T04:48:09.332Z,16.33
2023-03-27T04:50:37.596Z,17.20
2023-03-27T04:53:05.277Z,18.15
2023-03-27T04:55:39.039Z,18.40
2023-03-27T04:58:08.250Z,17.38
2023-03-27T05:00:38.682Z,16.98
2023-03-27T05:03:27.864Z,16.73
2023-03-27T05:06:02.618Z,16.05
2023-03-27T05:08:29.659Z,16.42
2023-03-27T05:10:57.652Z,15.85
2023-03-27T05:13:25.625Z,16.27
2023-03-27T05:15:53.005Z,16.80
2023-03-27T05:18:24.340Z,15.98
2023-03-27T05:20:51.532Z,18.10
2023-03-27T05:23:18.737Z,18.50
2023-03-27T05:25:59.889Z,18.80
2023-03-27T05:28:42.699Z,14.65
2023-03-27T05:31:10.861Z,10.98
2023-03-27T05:33:49.630Z,10.82
2023-03-27T05:36:16.978Z,10.88
2023-03-27T05:38:44.451Z,10.90
2023-03-27T05:41:31.020Z,10.88
2023-03-27T05:43:58.277Z,10.93
2023-03-27T05:46:26.682Z,11.90
2023-03-27T05:49:01.485Z,12.32
2023-03-27T05:51:29.596Z,13.65
2023-03-27T05:53:57.149Z,12.80
2023-03-27T05:56:33.875Z,14.05
2023-03-27T05:59:03.682Z,15.90
2023-03-27T06:01:36.095Z,16.42
2023-03-27T06:04:04.612Z,18.48
2023-03-27T06:06:52.158Z,19.27
2023-03-27T06:09:20.454Z,21.13
2023-03-27T06:12:13.586Z,21.60
2023-03-27T06:14:40.667Z,21.90
2023-03-27T06:17:26.824Z,20.83
2023-03-27T06:20:00.385Z,21.88
2023-03-27T06:22:32.051Z,20.95
2023-03-27T06:25:05.856Z,19.77
2023-03-27T06:27:34.030Z,20.50
2023-03-27T06:30:01.334Z,19.88
2023-03-27T06:32:29.420Z,20.38
2023-03-27T06:34:57.532Z,17.40
2023-03-27T06:37:48.874Z,19.48
2023-03-27T06:40:24.441Z,20.70
2023-03-27T06:43:01.272Z,20.23
2023-03-27T06:45:54.770Z,20.55
2023-03-27T06:48:40.798Z,20.92
2023-03-27T06:51:08.700Z,22.58
2023-03-27T06:53:38.095Z,21.88
2023-03-27T06:56:06.789Z,22.17
2023-03-27T06:58:54.039Z,18.58
2023-03-27T07:01:26.956Z,16.90
2023-03-27T07:04:14.565Z,15.65
2023-03-27T07:06:50.992Z,14.07
2023-03-27T07:09:19.108Z,14.52
2023-03-27T07:11:57.369Z,13.30
2023-03-27T07:14:24.564Z,14.73
2023-03-27T07:16:52.063Z,14.52
2023-03-27T07:19:19.626Z,14.20
2023-03-27T07:21:56.743Z,14.95
2023-03-27T07:24:25.608Z,15.43
2023-03-27T07:26:52.994Z,15.48
2023-03-27T07:29:30.389Z,16.08
2023-03-27T07:32:00.541Z,15.73
2023-03-27T07:34:42.811Z,15.98
2023-03-27T07:37:29.230Z,16.63
2023-03-27T07:40:16.517Z,16.25
2023-03-27T07:42:54.456Z,16.50
2023-03-27T07:45:24.150Z,16.60
2023-03-27T07:48:04.053Z,16.95
2023-03-27T07:50:32.043Z,15.48
2023-03-27T07:52:59.587Z,16.65
2023-03-27T07:55:29.859Z,16.92
2023-03-27T07:58:07.260Z,16.63
2023-03-27T08:00:36.973Z,17.17
2023-03-27T08:03:16.757Z,17.40
2023-03-27T08:05:56.196Z,18.60
2023-03-27T08:08:25.763Z,16.92
2023-03-27T08:10:58.435Z,17.35
2023-03-27T08:13:30.200Z,16.42
2023-03-27T08:16:06.247Z,16.83
2023-03-27T08:18:33.829Z,17.05
2023-03-27T08:21:03.363Z,17.25
2023-03-27T08:23:32.849Z,16.67
2023-03-27T08:26:18.823Z,18.33
2023-03-27T08:29:09.019Z,17.92
2023-03-27T08:31:37.488Z,19.92
2023-03-27T08:34:06.702Z,18.35
2023-03-27T08:36:54.335Z,18.98
2023-03-27T08:39:38.840Z,18.02
2023-03-27T08:42:14.144Z,18.80
2023-03-27T08:44:45.806Z,19.65
2023-03-27T08:47:18.765Z,19.08
2023-03-27T08:50:02.859Z,16.63
2023-03-27T08:52:46.550Z,16.33
2023-03-27T08:55:44.715Z,16.08
2023-03-27T08:58:20.812Z,14.80
2023-03-27T09:01:01.010Z,13.57
2023-03-27T09:04:12.868Z,13.65
2023-03-27T09:07:03.162Z,11.95
2023-03-27T09:09:42.534Z,11.85
2023-03-27T09:12:11.836Z,11.70
2023-03-27T09:14:58.844Z,11.18
2023-03-27T09:17:45.542Z,10.40
2023-03-27T09:20:41.205Z,10.00
2023-03-27T09:23:24.645Z,10.50
2023-03-27T09:26:26.073Z,10.20
2023-03-27T09:29:25.624Z,9.70
2023-03-27T09:32:16.266Z,8.55
2023-03-27T09:34:45.000Z,9.10
2023-03-27T09:37:17.977Z,9.05
2023-03-27T09:39:51.598Z,10.05
2023-03-27T09:42:41.491Z,10.05
2023-03-27T09:45:12.795Z,8.90
2023-03-27T09:48:04.381Z,8.40
2023-03-27T09:50:49.263Z,8.50
2023-03-27T09:53:30.296Z,8.38
2023-03-27T09:56:16.471Z,7.95
2023-03-27T09:58:51.453Z,8.23
2023-03-27T10:01:28.161Z,7.50
2023-03-27T10:04:10.344Z,8.20
2023-03-27T10:06:44.809Z,8.17
2023-03-27T10:09:37.629Z,9.03
2023-03-27T10:12:08.097Z,9.07
2023-03-27T10:14:46.267Z,9.60
2023-03-27T10:17:24.515Z,10.10
2023-03-27T10:20:09.147Z,11.20
2023-03-27T10:22:42.599Z,11.07
2023-03-27T10:25:30.510Z,13.03
2023-03-27T10:28:18.656Z,14.93
2023-03-27T10:31:08.505Z,15.90
2023-03-27T10:33:47.565Z,16.70
2023-03-27T10:36:39.631Z,17.00
2023-03-27T10:39:15.455Z,16.70
2023-03-27T10:41:55.015Z,17.10
2023-03-27T10:44:26.085Z,16.80
2023-03-27T10:46:57.171Z,15.97
2023-03-27T10:49:46.351Z,14.67
2023-03-27T10:52:57.383Z,12.90
2023-03-27T10:56:19.103Z,13.07
2023-03-27T10:59:04.433Z,14.20
2023-03-27T11:01:42.407Z,13.90
2023-03-27T11:04:55.310Z,14.43
2023-03-27T11:07:38.018Z,15.40
2023-03-27T11:10:24.950Z,17.50
2023-03-27T11:13:23.051Z,18.57
2023-03-27T11:16:29.554Z,18.17
2023-03-27T11:19:38.288Z,18.83
2023-03-27T11:22:30.084Z,20.67
2023-03-27T11:25:07.996Z,19.97
2023-03-27T11:27:50.238Z,20.93
2023-03-27T11:30:38.437Z,18.83
2023-03-27T11:33:15.467Z,19.70
2023-03-27T11:35:52.294Z,19.13
2023-03-27T11:39:19.129Z,19.63
2023-03-27T11:41:54.689Z,19.47
2023-03-27T11:44:23.751Z,19.77
2023-03-27T11:47:19.315Z,21.07
2023-03-27T11:50:20.257Z,20.33
2023-03-27T11:53:07.188Z,19.00
2023-03-27T11:55:57.045Z,19.13
2023-03-27T11:58:44.333Z,22.77
2023-03-27T12:01:23.198Z,20.73
2023-03-27T12:04:20.884Z,18.50
2023-03-27T12:07:35.951Z,19.17
2023-03-27T12:10:30.015Z,18.13
2023-03-27T12:13:28.681Z,17.23
2023-03-27T12:16:21.495Z,16.63
2023-03-27T12:19:17.227Z,12.97
2023-03-27T12:22:23.872Z,11.23
2023-03-27T12:25:52.746Z,11.20
2023-03-27T12:28:44.831Z,11.17
2023-03-27T12:31:36.237Z,11.63
2023-03-27T12:34:20.919Z,11.83
2023-03-27T12:36:49.290Z,11.00
2023-03-27T12:39:24.508Z,10.83
2023-03-27T12:41:52.101Z,9.80
2023-03-27T12:44:31.699Z,10.23
2023-03-27T12:47:22.915Z,9.60
2023-03-27T12:50:00.768Z,10.23
2023-03-27T12:52:35.228Z,9.27
2023-03-27T12:55:14.658Z,8.40
2023-03-27T12:58:04.877Z,8.23
2023-03-27T13:01:03.661Z,8.23
2023-03-27T13:04:01.532Z,7.70
2023-03-27T13:06:38.686Z,8.43
2023-03-27T13:09:26.631Z,8.50
2023-03-27T13:12:18.334Z,8.30
2023-03-27T13:15:18.231Z,7.20
2023-03-27T13:18:13.188Z,6.70
2023-03-27T13:21:18.936Z,6.57
2023-03-27T13:24:29.182Z,7.23
2023-03-27T13:26:59.102Z,7.53
2023-03-27T13:29:33.189Z,7.23
2023-03-27T13:32:31.075Z,7.67
2023-03-27T13:35:22.910Z,8.13
2023-03-27T13:38:02.725Z,7.67
2023-03-27T13:40:50.913Z,7.63
2023-03-27T13:43:33.897Z,7.03
2023-03-27T13:46:29.520Z,6.90
2023-03-27T13:50:03.628Z,6.40
2023-03-27T13:52:57.095Z,6.93
2023-03-27T13:55:52.754Z,6.77
2023-03-27T13:59:09.675Z,7.10
2023-03-27T14:01:57.126Z,6.10
2023-03-27T14:05:01.654Z,5.90
2023-03-27T14:07:45.489Z,5.37
2023-03-27T14:10:36.678Z,5.53
2023-03-27T14:13:13.875Z,5.60
2023-03-27T14:15:55.149Z,5.67
2023-03-27T14:18:50.562Z,5.73
2023-03-27T14:21:35.581Z,5.10
2023-03-27T14:24:30.663Z,5.20
2023-03-27T14:27:23.089Z,4.80
2023-03-27T14:30:20.413Z,5.50
2023-03-27T14:33:16.060Z,5.13
2023-03-27T14:35:54.082Z,6.00
2023-03-27T14:38:25.016Z,5.50
2023-03-27T14:41:00.456Z,5.87
2023-03-27T14:43:53.402Z,6.23
2023-03-27T14:46:23.630Z,5.33
2023-03-27T14:48:58.298Z,5.50
2023-03-27T14:51:37.182Z,5.50
2023-03-27T14:54:17.791Z,5.77
2023-03-27T14:56:51.776Z,5.70
2023-03-27T14:59:38.889Z,5.67
2023-03-27T15:02:32.740Z,5.90
2023-03-27T15:05:24.650Z,6.47
2023-03-27T15:08:00.597Z,6.40
2023-03-27T15:10:54.899Z,6.63
2023-03-27T15:13:36.874Z,6.23
2023-03-27T15:16:11.995Z,6.47
2023-03-27T15:18:49.943Z,6.10
2023-03-27T15:21:34.836Z,6.00
2023-03-27T15:24:10.953Z,6.90
2023-03-27T15:26:39.623Z,6.67
2023-03-27T15:29:29.529Z,7.13
2023-03-27T15:31:59.933Z,6.97
2023-03-27T15:34:38.115Z,6.63
2023-03-27T15:37:13.185Z,5.73
2023-03-27T15:40:13.734Z,6.70
2023-03-27T15:43:08.512Z,6.27
2023-03-27T15:46:04.278Z,6.80
2023-03-27T15:48:40.505Z,6.23
2023-03-27T15:51:13.094Z,6.60
2023-03-27T15:53:45.228Z,6.23
2023-03-27T15:56:30.578Z,6.57
2023-03-27T15:59:13.699Z,6.40
2023-03-27T16:01:53.037Z,6.37
2023-03-27T16:04:35.637Z,5.77
2023-03-27T16:07:32.984Z,6.57
2023-03-27T16:10:05.294Z,6.30
2023-03-27T16:12:40.289Z,6.00
2023-03-27T16:15:28.421Z,5.80
2023-03-27T16:17:58.210Z,6.07
2023-03-27T16:20:25.691Z,6.10
2023-03-27T16:22:52.846Z,5.80
2023-03-27T16:25:20.141Z,5.30
2023-03-27T16:27:54.289Z,5.27
2023-03-27T16:30:32.620Z,4.83
2023-03-27T16:33:00.519Z,5.03
2023-03-27T16:35:29.721Z,4.83
2023-03-27T16:37:57.118Z,5.23
2023-03-27T16:40:24.568Z,5.00
2023-03-27T16:42:51.618Z,4.97
2023-03-27T16:45:18.694Z,4.97
2023-03-27T16:47:50.139Z,5.17
2023-03-27T16:50:22.805Z,4.70
2023-03-27T16:52:50.089Z,4.30
2023-03-27T16:55:17.551Z,4.23
2023-03-27T16:57:46.386Z,3.77
2023-03-27T17:00:15.669Z,3.87
2023-03-27T17:02:44.606Z,4.50
2023-03-27T17:05:12.083Z,4.20
2023-03-27T17:07:41.825Z,3.87
2023-03-27T17:10:10.476Z,4.20
2023-03-27T17:12:38.160Z,3.77
2023-03-27T17:15:06.080Z,3.73
2023-03-27T17:17:33.310Z,3.93
2023-03-27T17:20:01.056Z,3.83
2023-03-27T17:22:30.153Z,3.63
2023-03-27T17:25:01.216Z,4.17
2023-03-27T17:27:28.574Z,4.10
2023-03-27T17:29:56.440Z,4.10
2023-03-27T17:32:27.870Z,4.20
2023-03-27T17:34:55.396Z,3.50
2023-03-27T17:37:23.733Z,3.83
2023-03-27T17:39:50.935Z,3.80
2023-03-27T17:42:18.053Z,3.97
2023-03-27T17:44:45.622Z,3.73
2023-03-27T17:47:13.456Z,3.37
2023-03-27T17:49:45.178Z,4.10
2023-03-27T17:52:13.450Z,3.60
2023-03-27T17:54:40.653Z,3.87
2023-03-27T17:57:07.974Z,4.03
2023-03-27T17:59:36.701Z,3.87
2023-03-27T18:02:04.198Z,3.97
2023-03-27T18:04:33.261Z,3.93
2023-03-27T18:07:00.477Z,4.20
2023-03-27T18:09:27.665Z,4.20
2023-03-27T18:11:54.886Z,4.20
2023-03-27T18:14:22.216Z,4.20
2023-03-27T18:16:49.428Z,3.93
2023-03-27T18:19:16.597Z,4.07
2023-03-27T18:21:43.698Z,3.73
2023-03-27T18:24:11.306Z,3.83
2023-03-27T18:26:38.685Z,4.10
2023-03-27T18:29:05.930Z,3.80
2023-03-27T18:31:33.494Z,3.80
2023-03-27T18:34:01.174Z,3.70
2023-03-27T18:36:28.433Z,3.80
2023-03-27T18:38:56.564Z,4.07
2023-03-27T18:41:23.691Z,4.10
2023-03-27T18:43:50.809Z,3.97
2023-03-27T18:46:18.182Z,3.50
2023-03-27T18:48:49.166Z,3.90
2023-03-27T18:51:18.716Z,4.00
2023-03-27T18:53:46.219Z,3.97
2023-03-27T18:56:13.728Z,4.20
2023-03-27T18:58:40.947Z,4.43
2023-03-27T19:01:09.719Z,4.40
2023-03-27T19:03:39.071Z,4.47
2023-03-27T19:06:08.546Z,4.70
2023-03-27T19:08:39.701Z,4.30
2023-03-27T19:11:07.842Z,5.50
2023-03-27T19:13:53.555Z,4.83
2023-03-27T19:16:29.635Z,5.17
2023-03-27T19:19:15.703Z,4.87
2023-03-27T19:22:08.418Z,5.10
2023-03-27T19:24:40.965Z,5.03
2023-03-27T19:27:08.569Z,4.50
2023-03-27T19:29:51.876Z,5.23
2023-03-27T19:32:18.965Z,4.93
2023-03-27T19:34:46.033Z,4.73
2023-03-27T19:37:13.288Z,5.10
2023-03-27T19:39:40.344Z,4.50
2023-03-27T19:42:07.671Z,4.70
2023-03-27T19:44:38.196Z,4.67
2023-03-27T19:47:07.515Z,5.20
2023-03-27T19:49:34.775Z,4.90
2023-03-27T19:52:31.327Z,5.60
2023-03-27T19:54:58.445Z,5.80
2023-03-27T19:57:25.582Z,5.67
2023-03-27T19:59:53.053Z,5.33
2023-03-27T20:02:21.071Z,5.00
2023-03-27T20:04:49.391Z,4.93
2023-03-27T20:07:16.496Z,5.40
2023-03-27T20:09:43.654Z,5.07
2023-03-27T20:12:12.357Z,5.17
2023-03-27T20:14:39.473Z,5.03
2023-03-27T20:17:12.209Z,5.17
2023-03-27T20:19:50.006Z,5.63
2023-03-27T20:22:20.605Z,5.33
2023-03-27T20:24:48.940Z,5.17
2023-03-27T20:27:19.899Z,6.00
2023-03-27T20:29:47.685Z,5.70
2023-03-27T20:32:15.629Z,5.70
2023-03-27T20:34:42.773Z,6.00
2023-03-27T20:37:12.566Z,7.00
2023-03-27T20:40:11.755Z,6.27
2023-03-27T20:42:39.093Z,6.47
2023-03-27T20:45:08.274Z,6.80
2023-03-27T20:47:47.084Z,6.50
2023-03-27T20:50:17.138Z,6.33
2023-03-27T20:52:48.487Z,7.20
2023-03-27T20:55:32.444Z,7.47
2023-03-27T20:58:01.973Z,7.27
2023-03-27T21:00:29.095Z,7.37
2023-03-27T21:02:58.835Z,8.57
2023-03-27T21:05:26.593Z,8.33
2023-03-27T21:07:54.078Z,8.50
2023-03-27T21:10:21.549Z,8.23
2023-03-27T21:12:48.834Z,8.63
2023-03-27T21:15:16.018Z,8.80
2023-03-27T21:17:43.184Z,8.77
2023-03-27T21:20:11.270Z,9.10
2023-03-27T21:22:38.704Z,8.20
2023-03-27T21:25:06.595Z,8.40
2023-03-27T21:27:36.577Z,8.50
2023-03-27T21:30:05.921Z,9.10
2023-03-27T21:32:33.006Z,8.47
2023-03-27T21:35:00.396Z,9.17
2023-03-27T21:37:27.474Z,9.07
2023-03-27T21:39:54.610Z,8.93
2023-03-27T21:42:21.986Z,8.57
2023-03-27T21:44:53.778Z,9.07
2023-03-27T21:47:22.334Z,8.63
2023-03-27T21:49:49.604Z,9.13
2023-03-27T21:52:16.689Z,9.37
2023-03-27T21:54:56.341Z,10.10
2023-03-27T21:57:29.540Z,9.10
2023-03-27T21:59:56.582Z,10.60
2023-03-27T22:02:23.834Z,10.43
2023-03-27T22:04:51.094Z,10.47
2023-03-27T22:07:18.285Z,11.13
2023-03-27T22:09:45.541Z,10.73
2023-03-27T22:12:13.187Z,10.37
2023-03-27T22:14:40.579Z,10.40
2023-03-27T22:17:07.992Z,10.40
2023-03-27T22:19:35.424Z,10.80
2023-03-27T22:22:02.873Z,10.37
2023-03-27T22:24:29.987Z,10.73
2023-03-27T22:26:57.191Z,10.30
2023-03-27T22:29:24.549Z,10.27
2023-03-27T22:31:51.914Z,10.20
2023-03-27T22:34:18.934Z,10.43
2023-03-27T22:36:46.134Z,11.17
2023-03-27T22:39:13.220Z,10.50
2023-03-27T22:41:41.130Z,10.37
2023-03-27T22:44:08.294Z,10.40
2023-03-27T22:46:35.675Z,11.07
2023-03-27T22:49:02.955Z,10.53
2023-03-27T22:51:31.084Z,11.10
2023-03-27T22:53:58.562Z,10.47
2023-03-27T22:56:25.898Z,11.43
2023-03-27T22:58:53.069Z,11.47
2023-03-27T23:01:20.477Z,11.57
2023-03-27T23:03:47.835Z,11.40
2023-03-27T23:06:20.337Z,11.83
2023-03-27T23:08:49.298Z,11.90
2023-03-27T23:11:17.203Z,11.30
2023-03-27T23:13:44.951Z,11.57
2023-03-27T23:16:13.129Z,12.23
2023-03-27T23:18:40.803Z,12.07
2023-03-27T23:21:10.922Z,12.30
2023-03-27T23:23:40.527Z,12.03
2023-03-27T23:26:08.136Z,12.83
2023-03-27T23:28:37.896Z,12.77
2023-03-27T23:31:08.466Z,13.03
2023-03-27T23:33:38.638Z,12.87
2023-03-27T23:36:17.740Z,13.37
2023-03-27T23:38:45.321Z,12.57
2023-03-27T23:41:13.757Z,12.70
2023-03-27T23:43:41.059Z,12.67
2023-03-27T23:46:10.961Z,13.17
2023-03-27T23:48:40.568Z,12.87
2023-03-27T23:51:08.885Z,13.67
2023-03-27T23:53:36.833Z,13.77
2023-03-27T23:56:04.290Z,12.93
2023-03-27T23:58:34.742Z,12.90
